Latest Weather Observations for Kurnell

IDN60801

Issued at 7:33 am EST Saturday 28 May 2016 (issued every 30 minutes, with the page automatically refreshed every 10 minutes)

About weather observations | Map of weather stations | Latest weather observations for NSW | Other Formats
Station Details ID: 066043 Name: KURNELL AWS Lat: -34.00 Lon: 151.21 Height: 4.0 m
Data from the previous 72 hours. | See also: Recent months for locations in New South Wales
Date/Time
EST
Temp
°C
App
Temp
°C
Dew
Point
Rel
Hum
%
Delta-T
°C
Wind Press
QNH
hPa
Press
MSL
hPa
Rain
since 9 am
mm
Dir
 
Spd
km/h
Gust
km/h
Spd
kts
Gust
kts
28/07:30am - - - - - SW 7 11 4 6 - - -
28/07:00am - - - - - W 15 19 8 10 - - -
28/06:30am - - - - - W 11 13 6 7 - - -
28/06:00am - - - - - WNW 11 15 6 8 - - -
28/05:30am - - - - - NW 17 20 9 11 - - -
28/05:00am - - - - - NW 17 20 9 11 - - -
28/04:30am - - - - - NW 19 24 10 13 - - -
28/04:00am - - - - - NNW 17 20 9 11 - - -
28/03:30am - - - - - NW 26 30 14 16 - - -
28/03:00am - - - - - NNW 24 28 13 15 - - -
28/02:30am - - - - - NW 28 33 15 18 - - -
28/02:00am - - - - - WNW 32 37 17 20 - - -
28/01:30am - - - - - WNW 32 39 17 21 - - -
28/01:00am - - - - - WNW 32 39 17 21 - - -
28/12:30am - - - - - WNW 35 41 19 22 - - -
28/12:00am - - - - - W 32 39 17 21 - - -
 
Date/Time
EST
Temp
°C
App
Temp
°C
Dew
Point
Rel
Hum
%
Delta-T
°C
Wind Press
QNH
hPa
Press
MSL
hPa
Rain
since 9 am
mm
Dir
 
Spd
km/h
Gust
km/h
Spd
kts
Gust
kts
27/11:30pm - - - - - W 32 39 17 21 - - -
27/11:00pm - - - - - WNW 33 41 18 22 - - -
27/10:30pm - - - - - W 35 43 19 23 - - -
27/10:00pm - - - - - W 30 39 16 21 - - -
27/09:30pm - - - - - W 26 32 14 17 - - -
27/09:00pm - - - - - W 28 35 15 19 - - -
27/08:30pm - - - - - W 33 39 18 21 - - -
27/08:00pm - - - - - W 32 37 17 20 - - -
27/07:30pm - - - - - W 32 41 17 22 - - -
27/07:00pm - - - - - W 32 39 17 21 - - -
27/06:30pm - - - - - W 32 37 17 20 - - -
27/06:00pm - - - - - W 37 46 20 25 - - -
27/05:30pm - - - - - W 39 50 21 27 - - -
27/05:00pm - - - - - W 44 56 24 30 - - -
27/04:45pm - - - - - W 37 56 20 30 - - -
27/04:30pm - - - - - W 39 52 21 28 - - -
27/04:00pm - - - - - W 50 61 27 33 - - -
27/03:41pm - - - - - W 46 65 25 35 - - -
27/03:30pm - - - - - WNW 46 54 25 29 - - -
27/03:00pm - - - - - W 46 57 25 31 - - -
27/02:30pm - - - - - W 43 57 23 31 - - -
27/02:14pm - - - - - W 41 59 22 32 - - -
27/02:00pm - - - - - W 44 56 24 30 - - -
27/01:46pm - - - - - W 43 61 23 33 - - -
27/01:30pm - - - - - W 41 54 22 29 - - -
27/01:00pm - - - - - W 50 59 27 32 - - -
27/12:44pm - - - - - W 56 74 30 40 - - -
27/12:30pm - - - - - WNW 57 74 31 40 - - -
27/12:17pm - - - - - WNW 52 74 28 40 - - -
27/12:00pm - - - - - W 43 56 23 30 - - -
27/11:30am - - - - - W 48 59 26 32 - - -
27/11:00am - - - - - WNW 48 57 26 31 - - -
27/10:30am - - - - - W 39 48 21 26 - - -
27/10:00am - - - - - W 35 48 19 26 - - -
27/09:57am - - - - - W 33 48 18 26 - - -
27/09:30am - - - - - W 24 30 13 16 - - -
27/09:00am - - - - - WNW 41 48 22 26 - - -
27/08:30am - - - - - W 44 52 24 28 - - -
27/08:00am - - - - - W 32 41 17 22 - - -
27/07:30am - - - - - W 30 37 16 20 - - -
27/07:00am - - - - - WNW 35 43 19 23 - - -
27/06:30am - - - - - W 32 41 17 22 - - -
27/06:00am - - - - - WSW 30 39 16 21 - - -
27/05:30am - - - - - WSW 24 30 13 16 - - -
27/05:00am - - - - - WSW 32 41 17 22 - - -
27/04:30am - - - - - WSW 22 32 12 17 - - -
27/04:00am - - - - - SW 17 32 9 17 - - -
27/03:51am - - - - - WSW 33 46 18 25 - - -
27/03:30am - - - - - W 46 56 25 30 - - -
27/03:00am - - - - - WNW 48 56 26 30 - - -
27/02:30am - - - - - WNW 54 70 29 38 - - -
27/02:26am - - - - - WNW 52 70 28 38 - - -
27/02:00am - - - - - W 43 59 23 32 - - -
27/01:30am - - - - - W 43 54 23 29 - - -
27/01:00am - - - - - W 35 43 19 23 - - -
27/12:30am - - - - - WSW 28 41 15 22 - - -
27/12:00am - - - - - W 28 32 15 17 - - -
 
Date/Time
EST
Temp
°C
App
Temp
°C
Dew
Point
Rel
Hum
%
Delta-T
°C
Wind Press
QNH
hPa
Press
MSL
hPa
Rain
since 9 am
mm
Dir
 
Spd
km/h
Gust
km/h
Spd
kts
Gust
kts
26/11:30pm - - - - - W 33 39 18 21 - - -
26/11:00pm - - - - - W 19 30 10 16 - - -
26/10:30pm - - - - - W 11 13 6 7 - - -
26/10:00pm - - - - - WNW 7 9 4 5 - - -
26/09:30pm - - - - - WSW 7 11 4 6 - - -
26/09:00pm - - - - - WSW 4 7 2 4 - - -
26/08:30pm - - - - - W 9 13 5 7 - - -
26/08:00pm - - - - - WNW 15 19 8 10 - - -
26/07:30pm - - - - - NW 15 19 8 10 - - -
26/07:00pm - - - - - NW 20 24 11 13 - - -
26/06:30pm - - - - - NW 20 26 11 14 - - -
26/06:00pm - - - - - WNW 22 28 12 15 - - -
26/05:30pm - - - - - WNW 30 37 16 20 - - -
26/05:00pm - - - - - NW 28 35 15 19 - - -
26/04:30pm - - - - - NW 39 48 21 26 - - -
26/04:08pm - - - - - NW 37 56 20 30 - - -
26/04:00pm - - - - - NW 39 52 21 28 - - -
26/03:34pm - - - - - NW 32 50 17 27 - - -
26/03:30pm - - - - - NW 33 41 18 22 - - -
26/03:00pm - - - - - NW 33 41 18 22 - - -
26/02:30pm - - - - - NNW 32 39 17 21 - - -
26/02:00pm - - - - - NNW 32 41 17 22 - - -
26/01:30pm - - - - - NNW 30 41 16 22 - - -
26/01:00pm - - - - - NNW 28 41 15 22 - - -
26/12:30pm - - - - - N 26 32 14 17 - - -
26/12:00pm - - - - - N 28 35 15 19 - - -
26/11:30am - - - - - N 28 33 15 18 - - -
26/11:00am - - - - - N 28 35 15 19 - - -
26/10:30am - - - - - N 28 33 15 18 - - -
26/10:00am - - - - - N 28 33 15 18 - - -
26/09:30am - - - - - N 26 32 14 17 - - -
26/09:00am - - - - - N 26 32 14 17 - - -
26/08:30am - - - - - N 24 32 13 17 - - -
26/08:00am - - - - - N 24 30 13 16 - - -
26/07:30am - - - - - NNW 22 32 12 17 - - -
26/07:00am - - - - - N 19 26 10 14 - - -
26/06:30am - - - - - N 17 20 9 11 - - -
26/06:00am - - - - - N 15 19 8 10 - - -
26/05:30am - - - - - NNW 17 20 9 11 - - -
26/05:00am - - - - - NW 17 24 9 13 - - -
26/04:30am - - - - - NW 15 17 8 9 - - -
26/04:00am - - - - - WNW 11 13 6 7 - - -
26/03:30am - - - - - WNW 13 15 7 8 - - -
26/03:00am - - - - - WNW 19 22 10 12 - - -
26/02:30am - - - - - NNW 13 17 7 9 - - -
26/02:00am - - - - - NNW 11 15 6 8 - - -
26/01:30am - - - - - N 11 17 6 9 - - -
26/01:00am - - - - - NW 13 15 7 8 - - -
26/12:30am - - - - - NNW 13 15 7 8 - - -
26/12:00am - - - - - W 15 19 8 10 - - -
 
Date/Time
EST
Temp
°C
App
Temp
°C
Dew
Point
Rel
Hum
%
Delta-T
°C
Wind Press
QNH
hPa
Press
MSL
hPa
Rain
since 9 am
mm
Dir
 
Spd
km/h
Gust
km/h
Spd
kts
Gust
kts
25/11:30pm - - - - - CALM 0 2 0 1 - - -
25/11:00pm - - - - - WSW 9 17 5 9 - - -
25/10:30pm - - - - - W 9 11 5 6 - - -
25/10:00pm - - - - - WSW 9 13 5 7 - - -
25/09:30pm - - - - - SSW 4 7 2 4 - - -
25/09:00pm - - - - - SW 7 9 4 5 - - -
25/08:30pm - - - - - WSW 13 15 7 8 - - -
25/08:00pm - - - - - N 9 13 5 7 - - -
25/07:30pm - - - - - N 11 15 6 8 - - -
25/07:00pm - - - - - NNE 17 20 9 11 - - -
25/06:30pm - - - - - NNE 20 24 11 13 - - -
25/06:00pm - - - - - NNE 20 26 11 14 - - -
25/05:30pm - - - - - NE 13 17 7 9 - - -
25/05:00pm - - - - - NE 17 19 9 10 - - -
25/04:30pm - - - - - NE 17 20 9 11 - - -
25/04:00pm - - - - - ENE 15 19 8 10 - - -
25/03:30pm - - - - - E 13 15 7 8 - - -
25/03:00pm - - - - - E 11 13 6 7 - - -
25/02:30pm - - - - - NNE 4 7 2 4 - - -
25/02:00pm - - - - - N 7 11 4 6 - - -
25/01:30pm - - - - - N 9 13 5 7 - - -
25/01:00pm - - - - - NW 11 13 6 7 - - -
25/12:30pm - - - - - N 11 15 6 8 - - -
25/12:00pm - - - - - NNW 15 19 8 10 - - -
25/11:30am - - - - - NW 7 9 4 5 - - -
25/11:00am - - - - - W 13 17 7 9 - - -
25/10:30am - - - - - WSW 15 20 8 11 - - -
25/10:00am - - - - - W 20 28 11 15 - - -
25/09:30am - - - - - W 22 28 12 15 - - -
25/09:00am - - - - - WSW 20 28 11 15 - - -
25/08:30am - - - - - WSW 20 26 11 14 - - -
25/08:00am - - - - - W 22 26 12 14 - - -

Other Formats:

Comma delimited format used in spreadsheet applications
http://www.bom.gov.au/fwo/IDN60801/IDN60801.95756.axf

JavaScript Object Notation format (JSON) in row-major order
http://www.bom.gov.au/fwo/IDN60801/IDN60801.95756.json